Time;durP1;ratioP1;P1;durP2;ratioP2;P2;SDS_P1;SDS_P2;PMS_P1;PMS_P2;Temp;Humidity;BMP_temperature;BMP_pressure;BME280_temperature;BME280_humidity;BME280_pressure;Samples;Min_cycle;Max_cycle;Signal;HPM_P1;HPM_P2
2022/10/20 00:00:36;;;;;;;;;;;;;;;;;;6265914;22;20316;-87
2022/10/20 00:03:03;;;;;;;;;;;;;;;;;;6263646;22;20036;-86
2022/10/20 00:05:34;;;;;;;;;;;;;;;;;;6267820;22;19926;-85
2022/10/20 00:08:01;;;;;;;;;;;;;;;;;;6264232;22;20335;-86
2022/10/20 00:10:30;;;;;;;;;;;;;;;;;;6267113;22;19965;-86
2022/10/20 00:12:56;;;;;;;;;;;;;;;;;;6265336;22;19919;-86
2022/10/20 00:15:22;;;;;;;;;;;;;;;;;;6268048;22;20257;-86
2022/10/20 00:17:48;;;;;;;;;;;;;;;;;;6266756;22;19919;-86
2022/10/20 00:20:14;;;;;;;;;;;;;;;;;;6289142;22;19919;-86
2022/10/20 00:22:40;;;;;;;;;;;;;;;;;;6264831;22;19927;-86
2022/10/20 00:25:06;;;;;;;;;;;;;;;;;;6264361;22;19915;-86
2022/10/20 00:27:35;;;;;;;;;;;;;;;;;;6265499;22;20284;-86
2022/10/20 00:30:01;;;;;;;;;;;;;;;;;;6257897;22;19922;-86
2022/10/20 00:32:29;;;;;;;;;;;;;;;;;;6266868;22;19958;-86
2022/10/20 00:34:55;;;;;;;;;;;;;;;;;;6265586;22;19919;-85
2022/10/20 00:37:21;;;;;;;;;;;;;;;;;;6265174;22;20039;-86
2022/10/20 00:39:47;;;;;;;;;;;;;;;;;;6264893;22;20384;-86
2022/10/20 00:42:13;;;;;;;;;;;;;;;;;;6263114;22;19923;-86
2022/10/20 00:44:38;;;;;;;;;;;;;;;;;;6262500;22;20459;-86
2022/10/20 00:47:04;;;;;;;;;;;;;;;;;;6264273;22;19919;-86
2022/10/20 00:49:30;;;;;;;;;;;;;;;;;;6265863;22;20297;-86
2022/10/20 00:51:59;;;;;;;;;;;;;;;;;;6264076;22;19957;-86
2022/10/20 00:54:25;;;;;;;;;;;;;;;;;;6266526;22;19922;-86
2022/10/20 00:56:51;;;;;;;;;;;;;;;;;;6268064;22;19993;-86
2022/10/20 00:59:17;;;;;;;;;;;;;;;;;;6266269;22;19961;-86
2022/10/20 01:01:43;;;;;;;;;;;;;;;;;;6292036;22;19923;-87
2022/10/20 01:04:12;;;;;;;;;;;;;;;;;;6263580;22;19946;-86
2022/10/20 01:06:38;;;;;;;;;;;;;;;;;;6292734;22;19926;-86
2022/10/20 01:09:04;;;;;;;;;;;;;;;;;;6263046;22;20294;-86
2022/10/20 01:11:30;;;;;;;;;;;;;;;;;;6265275;22;20393;-86
2022/10/20 01:13:59;;;;;;;;;;;;;;;;;;6263837;22;19919;-86
2022/10/20 01:16:25;;;;;;;;;;;;;;;;;;6263334;22;19923;-86
2022/10/20 01:18:51;;;;;;;;;;;;;;;;;;6288156;22;19941;-86
2022/10/20 01:21:17;;;;;;;;;;;;;;;;;;6287351;22;20568;-86
2022/10/20 01:23:43;;;;;;;;;;;;;;;;;;6265041;22;20250;-86
2022/10/20 01:26:09;;;;;;;;;;;;;;;;;;6262081;22;19998;-86
2022/10/20 01:28:38;;;;;;;;;;;;;;;;;;6292637;22;19915;-87
2022/10/20 01:31:04;;;;;;;;;;;;;;;;;;6289699;22;19923;-87
2022/10/20 01:33:30;;;;;;;;;;;;;;;;;;6288695;22;19923;-87
2022/10/20 01:35:59;;;;;;;;;;;;;;;;;;6265750;22;19925;-87
2022/10/20 01:38:25;;;;;;;;;;;;;;;;;;6293730;22;19986;-87
2022/10/20 01:40:51;;;;;;;;;;;;;;;;;;6291128;22;19958;-87
2022/10/20 01:43:17;;;;;;;;;;;;;;;;;;6263599;22;20204;-87
2022/10/20 01:45:43;;;;;;;;;;;;;;;;;;6289844;22;19926;-87
2022/10/20 01:48:09;;;;;;;;;;;;;;;;;;6254211;22;20407;-87
2022/10/20 01:50:35;;;;;;;;;;;;;;;;;;6256959;22;20399;-87
2022/10/20 01:53:01;;;;;;;;;;;;;;;;;;6286927;22;19969;-87
2022/10/20 01:55:27;;;;;;;;;;;;;;;;;;6290064;22;19919;-87
2022/10/20 01:57:53;;;;;;;;;;;;;;;;;;6289790;22;20354;-87
2022/10/20 02:00:19;;;;;;;;;;;;;;;;;;6289849;22;19946;-87
2022/10/20 02:02:45;;;;;;;;;;;;;;;;;;6265562;22;19930;-87
2022/10/20 02:05:10;;;;;;;;;;;;;;;;;;6259757;22;19979;-87
2022/10/20 02:07:36;;;;;;;;;;;;;;;;;;6263620;22;19918;-86
2022/10/20 02:10:02;;;;;;;;;;;;;;;;;;6263693;22;19923;-86
2022/10/20 02:12:28;;;;;;;;;;;;;;;;;;6264867;22;19951;-87
2022/10/20 02:14:54;;;;;;;;;;;;;;;;;;6265297;22;19986;-86
2022/10/20 02:17:20;;;;;;;;;;;;;;;;;;6262946;22;19950;-86
2022/10/20 02:19:46;;;;;;;;;;;;;;;;;;6263769;22;19919;-86
2022/10/20 02:22:12;;;;;;;;;;;;;;;;;;6262557;22;20317;-86
2022/10/20 02:24:38;;;;;;;;;;;;;;;;;;6265309;22;19965;-86
2022/10/20 02:27:04;;;;;;;;;;;;;;;;;;6262740;22;20247;-87
2022/10/20 02:29:31;;;;;;;;;;;;;;;;;;6291362;22;19919;-86
2022/10/20 02:32:00;;;;;;;;;;;;;;;;;;6264613;22;19930;-86
2022/10/20 02:34:26;;;;;;;;;;;;;;;;;;6263901;22;19919;-86
2022/10/20 02:36:52;;;;;;;;;;;;;;;;;;6267034;22;19918;-86
2022/10/20 02:39:18;;;;;;;;;;;;;;;;;;6262267;22;19954;-87
2022/10/20 02:41:44;;;;;;;;;;;;;;;;;;6265610;22;20356;-87
2022/10/20 02:44:10;;;;;;;;;;;;;;;;;;6261577;22;19923;-86
2022/10/20 02:46:36;;;;;;;;;;;;;;;;;;6266018;22;20336;-86
2022/10/20 02:49:02;;;;;;;;;;;;;;;;;;6287688;22;20235;-87
2022/10/20 02:51:28;;;;;;;;;;;;;;;;;;6290251;22;19919;-87
2022/10/20 02:53:54;;;;;;;;;;;;;;;;;;6289379;22;19915;-87
2022/10/20 02:56:22;;;;;;;;;;;;;;;;;;6264550;22;19918;-87
2022/10/20 02:58:48;;;;;;;;;;;;;;;;;;6266694;22;19984;-87
2022/10/20 03:01:14;;;;;;;;;;;;;;;;;;6261775;22;19919;-87
2022/10/20 03:03:40;;;;;;;;;;;;;;;;;;6265768;22;20484;-87
2022/10/20 03:06:06;;;;;;;;;;;;;;;;;;6266090;22;19954;-87
2022/10/20 03:08:32;;;;;;;;;;;;;;;;;;6293467;22;19933;-87
2022/10/20 03:10:58;;;;;;;;;;;;;;;;;;6265311;22;19919;-87
2022/10/20 03:13:24;;;;;;;;;;;;;;;;;;6266186;22;19925;-85
2022/10/20 03:15:50;;;;;;;;;;;;;;;;;;6268585;22;19923;-86
2022/10/20 03:18:16;;;;;;;;;;;;;;;;;;6263011;22;21019;-86
2022/10/20 03:20:42;;;;;;;;;;;;;;;;;;6265544;22;19925;-85
2022/10/20 03:23:08;;;;;;;;;;;;;;;;;;6264615;22;19945;-86
2022/10/20 03:25:34;;;;;;;;;;;;;;;;;;6293630;22;19925;-86
2022/10/20 03:28:00;;;;;;;;;;;;;;;;;;6265573;22;19998;-86
2022/10/20 03:30:26;;;;;;;;;;;;;;;;;;6267680;22;19949;-86
2022/10/20 03:32:52;;;;;;;;;;;;;;;;;;6269765;22;20251;-85
2022/10/20 03:35:18;;;;;;;;;;;;;;;;;;6290754;22;19919;-85
2022/10/20 03:37:44;;;;;;;;;;;;;;;;;;6264868;22;20055;-85
2022/10/20 03:40:10;;;;;;;;;;;;;;;;;;6265651;22;20084;-86
2022/10/20 03:42:36;;;;;;;;;;;;;;;;;;6266369;22;20004;-86
2022/10/20 03:45:02;;;;;;;;;;;;;;;;;;6266587;22;19990;-86
2022/10/20 03:47:27;;;;;;;;;;;;;;;;;;6266759;22;20594;-86
2022/10/20 03:49:53;;;;;;;;;;;;;;;;;;6264796;22;19919;-86
2022/10/20 03:52:19;;;;;;;;;;;;;;;;;;6290555;22;19918;-87
2022/10/20 03:54:45;;;;;;;;;;;;;;;;;;6267184;22;19925;-86
2022/10/20 03:57:11;;;;;;;;;;;;;;;;;;6263421;22;19925;-86
2022/10/20 03:59:40;;;;;;;;;;;;;;;;;;6269648;22;20324;-86
2022/10/20 04:02:06;;;;;;;;;;;;;;;;;;6263533;22;19926;-85
2022/10/20 04:04:32;;;;;;;;;;;;;;;;;;6291116;22;19915;-86
2022/10/20 04:06:58;;;;;;;;;;;;;;;;;;6264263;22;19919;-86
2022/10/20 04:09:24;;;;;;;;;;;;;;;;;;6265067;22;20297;-86
2022/10/20 04:11:50;;;;;;;;;;;;;;;;;;6292593;22;19918;-85
2022/10/20 04:14:16;;;;;;;;;;;;;;;;;;6263910;22;20784;-86
2022/10/20 04:16:42;;;;;;;;;;;;;;;;;;6263146;22;19918;-85
2022/10/20 04:19:08;;;;;;;;;;;;;;;;;;6262793;22;19918;-86
2022/10/20 04:21:34;;;;;;;;;;;;;;;;;;6267054;22;19997;-86
2022/10/20 04:24:00;;;;;;;;;;;;;;;;;;6258122;22;19958;-86
2022/10/20 04:26:26;;;;;;;;;;;;;;;;;;6264800;22;19976;-86
2022/10/20 04:28:52;;;;;;;;;;;;;;;;;;6265127;22;19923;-86
2022/10/20 04:31:18;;;;;;;;;;;;;;;;;;6265183;22;19995;-86
2022/10/20 04:33:44;;;;;;;;;;;;;;;;;;6266159;22;19964;-86
2022/10/20 04:36:10;;;;;;;;;;;;;;;;;;6293257;22;19918;-86
2022/10/20 04:38:36;;;;;;;;;;;;;;;;;;6263493;22;19988;-86
2022/10/20 04:41:03;;;;;;;;;;;;;;;;;;6263068;22;20335;-86
2022/10/20 04:43:29;;;;;;;;;;;;;;;;;;6266259;22;19922;-86
2022/10/20 04:45:57;;;;;;;;;;;;;;;;;;6266578;22;20256;-86
2022/10/20 04:48:23;;;;;;;;;;;;;;;;;;6264367;22;19958;-86
2022/10/20 04:50:49;;;;;;;;;;;;;;;;;;6262013;22;20012;-86
2022/10/20 04:53:15;;;;;;;;;;;;;;;;;;6289248;22;19927;-87
2022/10/20 04:55:44;;;;;;;;;;;;;;;;;;6265920;22;20388;-87
2022/10/20 04:58:10;;;;;;;;;;;;;;;;;;6265866;22;19937;-87
2022/10/20 05:00:36;;;;;;;;;;;;;;;;;;6266715;22;19954;-87
2022/10/20 05:03:02;;;;;;;;;;;;;;;;;;6263579;22;20330;-87
2022/10/20 05:05:28;;;;;;;;;;;;;;;;;;6268432;22;19966;-87
2022/10/20 05:07:54;;;;;;;;;;;;;;;;;;6264602;22;19919;-87
2022/10/20 05:10:20;;;;;;;;;;;;;;;;;;6262539;22;19942;-87
2022/10/20 05:12:46;;;;;;;;;;;;;;;;;;6267751;22;19957;-88
2022/10/20 05:15:12;;;;;;;;;;;;;;;;;;6265944;22;19915;-87
2022/10/20 05:17:38;;;;;;;;;;;;;;;;;;6295678;22;19919;-87
2022/10/20 05:20:04;;;;;;;;;;;;;;;;;;6266465;22;19926;-88
2022/10/20 05:22:30;;;;;;;;;;;;;;;;;;6264673;22;20028;-87
2022/10/20 05:24:59;;;;;;;;;;;;;;;;;;6285169;22;20417;-86
2022/10/20 05:27:25;;;;;;;;;;;;;;;;;;6262348;22;20406;-87
2022/10/20 05:29:51;;;;;;;;;;;;;;;;;;6288412;22;19982;-88
2022/10/20 05:32:17;;;;;;;;;;;;;;;;;;6262734;22;20356;-88
2022/10/20 05:34:43;;;;;;;;;;;;;;;;;;6263365;22;20336;-88
2022/10/20 05:37:09;;;;;;;;;;;;;;;;;;6260703;22;19926;-88
2022/10/20 05:39:35;;;;;;;;;;;;;;;;;;6263563;22;19919;-87
2022/10/20 05:42:01;;;;;;;;;;;;;;;;;;6265055;22;19950;-87
2022/10/20 05:44:29;;;;;;;;;;;;;;;;;;6266677;22;19919;-88
2022/10/20 05:46:58;;;;;;;;;;;;;;;;;;6266442;22;19915;-88
2022/10/20 05:49:25;;;;;;;;;;;;;;;;;;6264351;22;19926;-89
2022/10/20 05:52:00;;;;;;;;;;;;;;;;;;6271038;22;20001;-88
2022/10/20 05:54:52;;;;;;;;;;;;;;;;;;6288958;22;19992;-88
2022/10/20 05:57:37;;;;;;;;;;;;;;;;;;6264052;22;19969;-88
2022/10/20 06:00:23;;;;;;;;;;;;;;;;;;6225675;22;20460;-88
2022/10/20 06:03:17;;;;;;;;;;;;;;;;;;6255937;22;19919;-88
2022/10/20 06:05:54;;;;;;;;;;;;;;;;;;6246308;22;19923;-88
2022/10/20 06:08:42;;;;;;;;;;;;;;;;;;;;;
2022/10/20 06:11:13;;;;;;;;;;;;;;;;;;6250426;22;20342;-87
2022/10/20 06:13:55;;;;;;;;;;;;;;;;;;6230431;22;19958;-88
2022/10/20 06:16:37;;;;;;;;;;;;;;;;;;;;;
2022/10/20 06:19:38;;;;;;;;;;;;;;;;;;6293423;22;19930;-88
2022/10/20 06:22:21;;;;;;;;;;;;;;;;;;6270575;22;19998;-88
2022/10/20 06:25:11;;;;;;;;;;;;;;;;;;6260873;22;19915;-87
2022/10/20 06:27:48;;;;;;;;;;;;;;;;;;6263650;22;19974;-88
2022/10/20 06:30:38;;;;;;;;;;;;;;;;;;6273590;22;19960;-88
2022/10/20 06:33:13;;;;;;;;;;;;;;;;;;6228795;23;19923;-88
2022/10/20 06:36:01;;;;;;;;;;;;;;;;;;6181522;23;19919;-87
2022/10/20 06:38:43;;;;;;;;;;;;;;;;;;6175572;23;19931;-88
2022/10/20 06:41:33;;;;;;;;;;;;;;;;;;6174139;23;19927;-88
2022/10/20 06:44:10;;;;;;;;;;;;;;;;;;6168868;23;20032;-88
2022/10/20 06:49:46;;;;;;;;;;;;;;;;;;6144700;23;20404;-88
2022/10/20 06:52:12;;;;;;;;;;;;;;;;;;6141122;23;19966;-88
2022/10/20 06:54:50;;;;;;;;;;;;;;;;;;6177213;23;19916;-88
2022/10/20 06:57:25;;;;;;;;;;;;;;;;;;6172098;23;20295;-88
2022/10/20 06:59:58;;;;;;;;;;;;;;;;;;6170765;23;19927;-87
2022/10/20 07:02:33;;;;;;;;;;;;;;;;;;6175314;23;19926;-88
2022/10/20 07:08:30;;;;;;;;;;;;;;;;;;6180501;23;19951;-88
2022/10/20 07:11:02;;;;;;;;;;;;;;;;;;6222974;22;19919;-88
2022/10/20 07:13:47;;;;;;;;;;;;;;;;;;6259226;22;19919;-88
2022/10/20 07:16:23;;;;;;;;;;;;;;;;;;6248705;22;19915;-89
2022/10/20 07:18:49;;;;;;;;;;;;;;;;;;6251966;22;19920;-88
2022/10/20 07:21:15;;;;;;;;;;;;;;;;;;6260482;22;19919;-88
2022/10/20 07:23:44;;;;;;;;;;;;;;;;;;6261649;22;19920;-88
2022/10/20 07:26:10;;;;;;;;;;;;;;;;;;6257988;22;19916;-88
2022/10/20 07:28:36;;;;;;;;;;;;;;;;;;6262507;22;19915;-88
2022/10/20 07:31:02;;;;;;;;;;;;;;;;;;6235108;22;20372;-88
2022/10/20 07:33:28;;;;;;;;;;;;;;;;;;6260829;22;20020;-88
2022/10/20 07:35:56;;;;;;;;;;;;;;;;;;6258409;22;19919;-89
2022/10/20 07:38:22;;;;;;;;;;;;;;;;;;6261359;22;19926;-88
2022/10/20 07:40:48;;;;;;;;;;;;;;;;;;6262078;22;19972;-88
2022/10/20 07:43:14;;;;;;;;;;;;;;;;;;6258292;22;20291;-88
2022/10/20 07:45:40;;;;;;;;;;;;;;;;;;6236705;22;19977;-88
2022/10/20 07:48:08;;;;;;;;;;;;;;;;;;6259485;22;19946;-88
2022/10/20 07:50:34;;;;;;;;;;;;;;;;;;6260952;22;19919;-88
2022/10/20 07:53:00;;;;;;;;;;;;;;;;;;6258847;22;19985;-86
2022/10/20 07:55:26;;;;;;;;;;;;;;;;;;6237618;22;19919;-87
2022/10/20 07:57:52;;;;;;;;;;;;;;;;;;6259326;22;20287;-87
2022/10/20 08:00:18;;;;;;;;;;;;;;;;;;6261427;22;19923;-88
2022/10/20 08:02:45;;;;;;;;;;;;;;;;;;6234375;22;19919;-87
2022/10/20 08:05:11;;;;;;;;;;;;;;;;;;6259859;22;19930;-87
2022/10/20 08:07:40;;;;;;;;;;;;;;;;;;6232806;22;19925;-87
2022/10/20 08:10:06;;;;;;;;;;;;;;;;;;6234320;22;20001;-88
2022/10/20 08:12:32;;;;;;;;;;;;;;;;;;6260924;22;19919;-87
2022/10/20 08:14:58;;;;;;;;;;;;;;;;;;6234173;22;20216;-88
2022/10/20 08:17:27;;;;;;;;;;;;;;;;;;6233561;22;19927;-88
2022/10/20 08:19:53;;;;;;;;;;;;;;;;;;6233028;22;20327;-88
2022/10/20 08:22:22;;;;;;;;;;;;;;;;;;6232829;22;20328;-88
2022/10/20 08:24:48;;;;;;;;;;;;;;;;;;6235755;22;20014;-88
2022/10/20 08:27:14;;;;;;;;;;;;;;;;;;6234918;22;19919;-88
2022/10/20 08:29:40;;;;;;;;;;;;;;;;;;6236056;22;19926;-88
2022/10/20 08:32:06;;;;;;;;;;;;;;;;;;6236046;22;19923;-87
2022/10/20 08:34:32;;;;;;;;;;;;;;;;;;6237003;22;19928;-87
2022/10/20 08:36:59;;;;;;;;;;;;;;;;;;6233289;22;20648;-87
2022/10/20 08:39:25;;;;;;;;;;;;;;;;;;6235763;22;20376;-88
2022/10/20 08:41:53;;;;;;;;;;;;;;;;;;6262994;22;19920;-87
2022/10/20 08:44:19;;;;;;;;;;;;;;;;;;6232930;22;20324;-87
2022/10/20 08:46:45;;;;;;;;;;;;;;;;;;6235002;22;19920;-87
2022/10/20 08:49:14;;;;;;;;;;;;;;;;;;6233766;22;19926;-88
2022/10/20 08:51:40;;;;;;;;;;;;;;;;;;6237851;22;19919;-88
2022/10/20 08:54:06;;;;;;;;;;;;;;;;;;6261824;22;19919;-88
2022/10/20 08:56:32;;;;;;;;;;;;;;;;;;6267360;22;19973;-87
2022/10/20 08:58:58;;;;;;;;;;;;;;;;;;6265251;22;19919;-88
2022/10/20 09:01:24;;;;;;;;;;;;;;;;;;6267764;22;19921;-88
2022/10/20 09:03:50;;;;;;;;;;;;;;;;;;6264285;22;19922;-88
2022/10/20 09:06:16;;;;;;;;;;;;;;;;;;6264840;22;20040;-88
2022/10/20 09:08:42;;;;;;;;;;;;;;;;;;6261999;22;20679;-87
2022/10/20 09:11:11;;;;;;;;;;;;;;;;;;6267834;22;20004;-87
2022/10/20 09:13:37;;;;;;;;;;;;;;;;;;6265766;22;20332;-88
2022/10/20 09:16:03;;;;;;;;;;;;;;;;;;6265537;22;19961;-88
2022/10/20 09:18:29;;;;;;;;;;;;;;;;;;6265832;22;19915;-88
2022/10/20 09:20:55;;;;;;;;;;;;;;;;;;6267633;22;19929;-85
2022/10/20 09:23:21;;;;;;;;;;;;;;;;;;6264602;22;19994;-85
2022/10/20 09:25:47;;;;;;;;;;;;;;;;;;6263871;22;20391;-85
2022/10/20 09:28:13;;;;;;;;;;;;;;;;;;6264394;22;19926;-85
2022/10/20 09:30:39;;;;;;;;;;;;;;;;;;6267754;22;19915;-87
2022/10/20 09:33:05;;;;;;;;;;;;;;;;;;6265085;22;19977;-87
2022/10/20 09:35:31;;;;;;;;;;;;;;;;;;6268043;22;19918;-88
2022/10/20 09:37:57;;;;;;;;;;;;;;;;;;6263447;22;19919;-87
2022/10/20 09:40:24;;;;;;;;;;;;;;;;;;6266487;22;20316;-87
2022/10/20 09:42:50;;;;;;;;;;;;;;;;;;6267686;22;19933;-87
2022/10/20 09:45:16;;;;;;;;;;;;;;;;;;6266053;22;20337;-87
2022/10/20 09:47:43;;;;;;;;;;;;;;;;;;6267954;22;19950;-88
2022/10/20 09:50:11;;;;;;;;;;;;;;;;;;6265903;22;20197;-88
2022/10/20 09:52:46;;;;;;;;;;;;;;;;;;6266086;22;20233;-88
2022/10/20 09:55:12;;;;;;;;;;;;;;;;;;6293208;22;20304;-87
2022/10/20 09:57:38;;;;;;;;;;;;;;;;;;6269753;22;19922;-88
2022/10/20 10:00:04;;;;;;;;;;;;;;;;;;6264548;22;20290;-87
2022/10/20 10:02:30;;;;;;;;;;;;;;;;;;6262925;22;20284;-88
2022/10/20 10:05:00;;;;;;;;;;;;;;;;;;6267722;22;20244;-90
2022/10/20 10:07:45;;;;;;;;;;;;;;;;;;6292526;22;19914;-88
2022/10/20 10:10:13;;;;;;;;;;;;;;;;;;6266336;22;19923;-89
2022/10/20 10:12:39;;;;;;;;;;;;;;;;;;6267656;22;20383;-89
2022/10/20 10:15:11;;;;;;;;;;;;;;;;;;6264978;22;19929;-89
2022/10/20 10:17:37;;;;;;;;;;;;;;;;;;6267818;22;19919;-89
2022/10/20 10:20:06;;;;;;;;;;;;;;;;;;6262962;22;19929;-89
2022/10/20 10:22:35;;;;;;;;;;;;;;;;;;6269535;22;20311;-88
2022/10/20 10:25:03;;;;;;;;;;;;;;;;;;6265544;22;19923;-89
2022/10/20 10:27:40;;;;;;;;;;;;;;;;;;6267898;22;20251;-89
2022/10/20 10:30:08;;;;;;;;;;;;;;;;;;6267777;22;19972;-88
2022/10/20 10:32:37;;;;;;;;;;;;;;;;;;6265478;22;19915;-89
2022/10/20 10:35:11;;;;;;;;;;;;;;;;;;6267082;22;19956;-89
2022/10/20 10:37:40;;;;;;;;;;;;;;;;;;6269082;22;19938;-89
2022/10/20 10:40:06;;;;;;;;;;;;;;;;;;6266376;22;20298;-90
2022/10/20 10:42:32;;;;;;;;;;;;;;;;;;6270204;22;19957;-90
2022/10/20 10:44:58;;;;;;;;;;;;;;;;;;6291362;22;19918;-89
2022/10/20 10:47:30;;;;;;;;;;;;;;;;;;6266407;22;19965;-89
2022/10/20 10:50:02;;;;;;;;;;;;;;;;;;6268819;22;19915;-89
2022/10/20 10:52:31;;;;;;;;;;;;;;;;;;6261951;22;19928;-89
2022/10/20 10:54:57;;;;;;;;;;;;;;;;;;6239219;22;19922;-90
2022/10/20 10:57:23;;;;;;;;;;;;;;;;;;6240358;22;19919;-90
2022/10/20 10:59:49;;;;;;;;;;;;;;;;;;6262454;22;20256;-90
2022/10/20 11:02:16;;;;;;;;;;;;;;;;;;6235391;22;19915;-90
2022/10/20 11:04:44;;;;;;;;;;;;;;;;;;6240257;22;19946;-90
2022/10/20 11:07:13;;;;;;;;;;;;;;;;;;6234429;22;20009;-90
2022/10/20 11:09:39;;;;;;;;;;;;;;;;;;6239392;22;20331;-90
2022/10/20 11:12:05;;;;;;;;;;;;;;;;;;6233966;22;20256;-89
2022/10/20 11:14:47;;;;;;;;;;;;;;;;;;6263697;22;19994;-91
2022/10/20 11:17:16;;;;;;;;;;;;;;;;;;6263704;22;20433;-90
2022/10/20 11:19:42;;;;;;;;;;;;;;;;;;6237203;22;20402;-90
2022/10/20 11:22:19;;;;;;;;;;;;;;;;;;6234658;22;19999;-90
2022/10/20 11:24:48;;;;;;;;;;;;;;;;;;6238027;22;19919;-90
2022/10/20 11:27:14;;;;;;;;;;;;;;;;;;6236360;22;19990;-90
2022/10/20 11:29:40;;;;;;;;;;;;;;;;;;6237979;22;19926;-90
2022/10/20 11:32:08;;;;;;;;;;;;;;;;;;6236439;22;19915;-90
2022/10/20 11:34:40;;;;;;;;;;;;;;;;;;6237645;22;20774;-90
2022/10/20 11:37:09;;;;;;;;;;;;;;;;;;6237064;22;20352;-90
2022/10/20 11:39:43;;;;;;;;;;;;;;;;;;6239220;22;19923;-90
2022/10/20 11:42:09;;;;;;;;;;;;;;;;;;6234938;22;19984;-90
2022/10/20 11:44:36;;;;;;;;;;;;;;;;;;6264425;22;19919;-90
2022/10/20 11:47:04;;;;;;;;;;;;;;;;;;6237185;22;19919;-90
2022/10/20 11:49:38;;;;;;;;;;;;;;;;;;6259429;22;19930;-90
2022/10/20 11:52:07;;;;;;;;;;;;;;;;;;6239808;22;20403;-90
2022/10/20 11:54:33;;;;;;;;;;;;;;;;;;6266503;22;19969;-90
2022/10/20 11:56:59;;;;;;;;;;;;;;;;;;6264371;22;19918;-90
2022/10/20 11:59:34;;;;;;;;;;;;;;;;;;6269026;22;19970;-90
2022/10/20 12:02:00;;;;;;;;;;;;;;;;;;6266291;22;19919;-90
2022/10/20 12:04:26;;;;;;;;;;;;;;;;;;6270766;22;19923;-90
2022/10/20 12:06:52;;;;;;;;;;;;;;;;;;6293552;22;20011;-91
2022/10/20 12:09:18;;;;;;;;;;;;;;;;;;6263992;22;19919;-90
2022/10/20 12:11:44;;;;;;;;;;;;;;;;;;6270239;22;19926;-90
2022/10/20 12:14:15;;;;;;;;;;;;;;;;;;6266253;22;19919;-90
2022/10/20 12:16:41;;;;;;;;;;;;;;;;;;6267560;22;19929;-90
2022/10/20 12:19:10;;;;;;;;;;;;;;;;;;6265404;22;20385;-90
2022/10/20 12:21:36;;;;;;;;;;;;;;;;;;6270970;22;20007;-90
2022/10/20 12:24:04;;;;;;;;;;;;;;;;;;6267560;22;19922;-90
2022/10/20 12:26:33;;;;;;;;;;;;;;;;;;6268469;22;19918;-90
2022/10/20 12:29:02;;;;;;;;;;;;;;;;;;6267286;22;19919;-91
2022/10/20 12:31:28;;;;;;;;;;;;;;;;;;6268510;22;20296;-91
2022/10/20 12:33:55;;;;;;;;;;;;;;;;;;6268385;22;19925;-90
2022/10/20 12:36:23;;;;;;;;;;;;;;;;;;6265599;22;19923;-90
2022/10/20 12:38:50;;;;;;;;;;;;;;;;;;6270017;22;19950;-90
2022/10/20 12:41:18;;;;;;;;;;;;;;;;;;6267347;22;20236;-90
2022/10/20 12:43:47;;;;;;;;;;;;;;;;;;6266933;22;19994;-90
2022/10/20 12:46:13;;;;;;;;;;;;;;;;;;6263691;22;19919;-90
2022/10/20 12:48:42;;;;;;;;;;;;;;;;;;6268880;22;20298;-90
2022/10/20 12:51:11;;;;;;;;;;;;;;;;;;6267639;22;19972;-90
2022/10/20 12:53:43;;;;;;;;;;;;;;;;;;6265401;22;19924;-90
2022/10/20 12:56:16;;;;;;;;;;;;;;;;;;6236701;22;19922;-89
2022/10/20 12:58:42;;;;;;;;;;;;;;;;;;6240072;22;19981;-90
2022/10/20 13:01:11;;;;;;;;;;;;;;;;;;6237538;22;19922;-90
2022/10/20 13:03:37;;;;;;;;;;;;;;;;;;6262992;22;20324;-90
2022/10/20 13:06:03;;;;;;;;;;;;;;;;;;6231373;22;19919;-90
2022/10/20 13:08:32;;;;;;;;;;;;;;;;;;6238079;22;19923;-90
2022/10/20 13:10:58;;;;;;;;;;;;;;;;;;6234799;22;19919;-90
2022/10/20 13:13:24;;;;;;;;;;;;;;;;;;6236864;22;19925;-90
2022/10/20 13:15:50;;;;;;;;;;;;;;;;;;6237576;22;19919;-90
2022/10/20 13:18:19;;;;;;;;;;;;;;;;;;6259961;22;19958;-89
2022/10/20 13:20:47;;;;;;;;;;;;;;;;;;6237415;22;19930;-90
2022/10/20 13:23:13;;;;;;;;;;;;;;;;;;6259679;22;19919;-90
2022/10/20 13:25:48;;;;;;;;;;;;;;;;;;6239858;22;20453;-90
2022/10/20 13:28:14;;;;;;;;;;;;;;;;;;6232876;22;19919;-89
2022/10/20 13:30:40;;;;;;;;;;;;;;;;;;6236346;22;20374;-90
2022/10/20 13:33:06;;;;;;;;;;;;;;;;;;6261514;22;19919;-90
2022/10/20 13:35:40;;;;;;;;;;;;;;;;;;6241377;22;19919;-90
2022/10/20 13:38:09;;;;;;;;;;;;;;;;;;6233695;22;19919;-90
2022/10/20 13:40:35;;;;;;;;;;;;;;;;;;6239816;22;19998;-90
2022/10/20 13:43:01;;;;;;;;;;;;;;;;;;6263974;22;19942;-89
2022/10/20 13:45:30;;;;;;;;;;;;;;;;;;6240263;22;20324;-90
2022/10/20 13:48:06;;;;;;;;;;;;;;;;;;6237984;22;19988;-89
2022/10/20 13:50:38;;;;;;;;;;;;;;;;;;6239871;22;19919;-90
2022/10/20 13:53:05;;;;;;;;;;;;;;;;;;6247347;22;19929;-90
2022/10/20 13:55:36;;;;;;;;;;;;;;;;;;6269730;22;19919;-90
2022/10/20 13:58:08;;;;;;;;;;;;;;;;;;6267300;22;20364;-90
2022/10/20 14:00:34;;;;;;;;;;;;;;;;;;6270519;22;20276;-90
2022/10/20 14:03:06;;;;;;;;;;;;;;;;;;6266875;22;19926;-89
2022/10/20 14:05:32;;;;;;;;;;;;;;;;;;6268976;22;19926;-89
2022/10/20 14:08:04;;;;;;;;;;;;;;;;;;6293940;22;19937;-90
2022/10/20 14:10:32;;;;;;;;;;;;;;;;;;6270116;22;20336;-90
2022/10/20 14:13:01;;;;;;;;;;;;;;;;;;6268145;22;19926;-90
2022/10/20 14:15:30;;;;;;;;;;;;;;;;;;6269639;22;19919;-89
2022/10/20 14:18:01;;;;;;;;;;;;;;;;;;6268916;22;19914;-89
2022/10/20 14:20:33;;;;;;;;;;;;;;;;;;6270668;22;19927;-89
2022/10/20 14:23:01;;;;;;;;;;;;;;;;;;6267370;22;19919;-90
2022/10/20 14:25:30;;;;;;;;;;;;;;;;;;6271517;22;19994;-89
2022/10/20 14:27:59;;;;;;;;;;;;;;;;;;6270020;22;20735;-90
2022/10/20 14:30:25;;;;;;;;;;;;;;;;;;6269982;22;19919;-90
2022/10/20 14:33:01;;;;;;;;;;;;;;;;;;6267430;22;19946;-90
2022/10/20 14:35:33;;;;;;;;;;;;;;;;;;6265705;22;20320;-90
2022/10/20 14:38:06;;;;;;;;;;;;;;;;;;6265221;22;19922;-90
2022/10/20 14:40:33;;;;;;;;;;;;;;;;;;6269779;22;20247;-89
2022/10/20 14:43:01;;;;;;;;;;;;;;;;;;6263820;22;19915;-90
2022/10/20 14:45:27;;;;;;;;;;;;;;;;;;6269977;22;19919;-88
2022/10/20 14:47:59;;;;;;;;;;;;;;;;;;6262529;22;19922;-90
2022/10/20 14:50:25;;;;;;;;;;;;;;;;;;6269479;22;19922;-89
2022/10/20 14:52:54;;;;;;;;;;;;;;;;;;6265736;22;19923;-89
2022/10/20 14:55:20;;;;;;;;;;;;;;;;;;6265053;22;19921;-87
2022/10/20 14:57:49;;;;;;;;;;;;;;;;;;6266992;22;19958;-88
2022/10/20 15:00:18;;;;;;;;;;;;;;;;;;6261707;22;19966;-89
2022/10/20 15:02:44;;;;;;;;;;;;;;;;;;6265949;22;20328;-89
2022/10/20 15:05:10;;;;;;;;;;;;;;;;;;6266958;22;19922;-89
2022/10/20 15:07:51;;;;;;;;;;;;;;;;;;6263322;22;20359;-88
2022/10/20 15:10:20;;;;;;;;;;;;;;;;;;6263482;22;19976;-88
2022/10/20 15:12:52;;;;;;;;;;;;;;;;;;6265815;22;19919;-90
2022/10/20 15:15:19;;;;;;;;;;;;;;;;;;6265216;22;19919;-89
2022/10/20 15:17:45;;;;;;;;;;;;;;;;;;6268046;22;19926;-88
2022/10/20 15:20:18;;;;;;;;;;;;;;;;;;6264674;22;19930;-89
2022/10/20 15:22:44;;;;;;;;;;;;;;;;;;6267983;22;19946;-89
2022/10/20 15:25:13;;;;;;;;;;;;;;;;;;6265266;22;19915;-89
2022/10/20 15:27:45;;;;;;;;;;;;;;;;;;6268292;22;19950;-89
2022/10/20 15:30:19;;;;;;;;;;;;;;;;;;6268313;22;19915;-89
2022/10/20 15:32:47;;;;;;;;;;;;;;;;;;6270853;22;19947;-89
2022/10/20 15:35:19;;;;;;;;;;;;;;;;;;6267605;22;20481;-87
2022/10/20 15:37:45;;;;;;;;;;;;;;;;;;6267695;22;19950;-88
2022/10/20 15:40:13;;;;;;;;;;;;;;;;;;6266060;22;19926;-88
2022/10/20 15:42:39;;;;;;;;;;;;;;;;;;6263058;22;19950;-90
2022/10/20 15:45:08;;;;;;;;;;;;;;;;;;6262279;22;19972;-91
2022/10/20 15:47:37;;;;;;;;;;;;;;;;;;6264113;22;19919;-90
2022/10/20 15:50:12;;;;;;;;;;;;;;;;;;6263281;22;19919;-90
2022/10/20 15:52:44;;;;;;;;;;;;;;;;;;6261246;22;19988;-89
2022/10/20 15:55:21;;;;;;;;;;;;;;;;;;6261125;22;19919;-90
2022/10/20 15:57:52;;;;;;;;;;;;;;;;;;6263070;22;19995;-90
2022/10/20 16:00:21;;;;;;;;;;;;;;;;;;6261261;22;19963;-90
2022/10/20 16:02:52;;;;;;;;;;;;;;;;;;6261459;22;19915;-90
2022/10/20 16:05:18;;;;;;;;;;;;;;;;;;6261994;22;19918;-90
2022/10/20 16:07:45;;;;;;;;;;;;;;;;;;6263939;22;19975;-90
2022/10/20 16:10:11;;;;;;;;;;;;;;;;;;6262303;22;20251;-90
2022/10/20 16:12:39;;;;;;;;;;;;;;;;;;6262374;22;20013;-90
2022/10/20 16:15:08;;;;;;;;;;;;;;;;;;6261880;22;20397;-91
2022/10/20 16:17:34;;;;;;;;;;;;;;;;;;6262309;22;20358;-91
2022/10/20 16:20:06;;;;;;;;;;;;;;;;;;6261763;22;20100;-91
2022/10/20 16:22:38;;;;;;;;;;;;;;;;;;6266989;22;19926;-91
2022/10/20 16:25:04;;;;;;;;;;;;;;;;;;6259219;22;19919;-90
2022/10/20 16:27:41;;;;;;;;;;;;;;;;;;6265699;22;19925;-90
2022/10/20 16:30:10;;;;;;;;;;;;;;;;;;6262137;22;20252;-90
2022/10/20 16:32:47;;;;;;;;;;;;;;;;;;6264121;22;19972;-90
2022/10/20 16:35:26;;;;;;;;;;;;;;;;;;6259608;22;20025;-90
2022/10/20 16:38:06;;;;;;;;;;;;;;;;;;6287939;22;19922;-90
2022/10/20 16:40:52;;;;;;;;;;;;;;;;;;6264015;22;19974;-90
2022/10/20 16:43:31;;;;;;;;;;;;;;;;;;;;;
2022/10/20 16:46:00;;;;;;;;;;;;;;;;;;6261145;22;19925;-90
2022/10/20 16:48:29;;;;;;;;;;;;;;;;;;6267516;22;19925;-90
2022/10/20 16:50:58;;;;;;;;;;;;;;;;;;6264489;22;19919;-91
2022/10/20 16:53:30;;;;;;;;;;;;;;;;;;6263134;22;19930;-90
2022/10/20 16:55:59;;;;;;;;;;;;;;;;;;6265228;22;19921;-90
2022/10/20 16:58:25;;;;;;;;;;;;;;;;;;6266419;22;19925;-89
2022/10/20 17:01:02;;;;;;;;;;;;;;;;;;6260990;22;19922;-89
2022/10/20 17:03:37;;;;;;;;;;;;;;;;;;6266849;22;19926;-89